Quinebaug River @ Putnam, Ct

Quinebaug River at Putnam
 Total Drainage Area: 331 sq. miles 
 Drainage Area Controlled by Corps Dams: 231 sq. miles (70%) 
 Warning Flow/Stage: 3,340 cfs / 7.5 feet 
 Flood Flow/Stage: 5,270 cfs / 9.5 feet 
Date Time
(Eastern)
Stage
(ft)
Flow
(cfs)
CSM
(cfs / sq. mi.)
Jan-31 03:30 pm 5.23 1,598 4.8
Jan-31 02:30 pm 5.25 1,612 4.9
Jan-31 01:30 pm 5.25 1,612 4.9
Jan-31 12:30 pm 5.29 1,639 5.0
Jan-31 11:30 am 5.32 1,660 5.0
Jan-31 10:30 am 5.29 1,639 5.0
Jan-31 09:30 am 5.30 1,646 5.0
Jan-31 08:30 am 5.33 1,667 5.0
Jan-31 07:30 am 5.33 1,667 5.0
Jan-31 06:30 am 5.33 1,667 5.0
Jan-31 05:30 am 5.34 1,674 5.1
Jan-31 04:30 am 5.34 1,674 5.1
Jan-31 03:30 am 5.34 1,674 5.1
Jan-31 02:30 am 5.35 1,681 5.1
Jan-31 01:30 am 5.36 1,688 5.1
Jan-31 12:30 am 5.35 1,681 5.1
Jan-30 11:30 pm 5.34 1,674 5.1
Jan-30 10:30 pm 5.35 1,681 5.1
Jan-30 09:30 pm 5.34 1,674 5.1
Jan-30 08:30 pm 5.34 1,674 5.1
Jan-30 07:30 pm 5.33 1,667 5.0
Jan-30 06:30 pm 5.31 1,653 5.0
Jan-30 05:30 pm 5.32 1,660 5.0
Jan-30 04:30 pm 5.32 1,660 5.0
Jan-30 03:30 pm 5.32 1,660 5.0
Report Generated January 31, 2023 03:41 pm